createdAt,value
2017-11-03T00:00:45.805Z,99779.07
2017-11-03T00:03:12.203Z,99783.20
2017-11-03T00:05:38.846Z,99780.33
2017-11-03T00:08:05.999Z,99779.02
2017-11-03T00:10:33.256Z,99783.56
2017-11-03T00:12:59.507Z,99786.73
2017-11-03T00:15:25.767Z,99789.92
2017-11-03T00:17:52.800Z,99793.24
2017-11-03T00:20:27.026Z,99788.18
2017-11-03T00:22:54.333Z,99789.00
2017-11-03T00:25:20.616Z,99786.25
2017-11-03T00:27:47.625Z,99782.56
2017-11-03T00:30:13.962Z,99795.59
2017-11-03T00:32:40.350Z,99793.43
2017-11-03T00:35:06.620Z,99796.01
2017-11-03T00:37:32.887Z,99790.31
2017-11-03T00:40:00.776Z,99796.02
2017-11-03T00:42:27.047Z,99805.79
2017-11-03T00:44:54.295Z,99813.48
2017-11-03T00:47:20.771Z,99814.05
2017-11-03T00:49:47.048Z,99816.31
2017-11-03T00:52:13.524Z,99817.91
2017-11-03T00:54:40.547Z,99823.58
2017-11-03T00:57:06.943Z,99822.30
2017-11-03T00:59:33.280Z,99823.86
2017-11-03T01:01:59.648Z,99827.76
2017-11-03T01:04:26.013Z,99822.78
2017-11-03T01:06:53.178Z,99821.05
2017-11-03T01:09:19.452Z,99817.82
2017-11-03T01:11:47.214Z,99821.06
2017-11-03T01:14:13.465Z,99821.45
2017-11-03T01:16:39.718Z,99817.66
2017-11-03T01:19:06.918Z,99821.61
2017-11-03T01:21:33.509Z,99824.33
2017-11-03T01:23:59.773Z,99824.17
2017-11-03T01:26:26.069Z,99818.32
2017-11-03T01:28:52.399Z,99827.91
2017-11-03T01:31:18.675Z,99823.05
2017-11-03T01:33:45.212Z,99825.54
2017-11-03T01:36:11.516Z,99824.73
2017-11-03T01:38:37.827Z,99825.73
2017-11-03T01:41:04.047Z,99824.45
2017-11-03T01:43:31.938Z,99837.38
2017-11-03T01:45:58.259Z,99837.28
2017-11-03T01:48:24.547Z,99836.72
2017-11-03T01:50:50.836Z,99834.06
2017-11-03T01:53:17.284Z,99836.21
2017-11-03T01:55:43.556Z,99838.98
2017-11-03T01:58:09.808Z,99844.88
2017-11-03T02:00:36.074Z,99845.53
2017-11-03T02:03:02.305Z,99849.13
2017-11-03T02:05:28.552Z,99849.02
2017-11-03T02:07:54.806Z,99846.61
2017-11-03T02:10:21.060Z,99855.33
2017-11-03T02:12:47.335Z,99850.66
2017-11-03T02:15:13.592Z,99851.45
2017-11-03T02:17:40.918Z,99854.92
2017-11-03T02:20:07.277Z,99855.06
2017-11-03T02:22:34.296Z,99853.52
2017-11-03T02:25:00.563Z,99855.80
2017-11-03T02:27:27.581Z,99860.89
2017-11-03T02:29:53.825Z,99858.27
2017-11-03T02:32:20.097Z,99854.63
2017-11-03T02:34:46.336Z,99862.84
2017-11-03T02:37:13.481Z,99861.53
2017-11-03T02:39:39.753Z,99868.39
2017-11-03T02:42:06.025Z,99869.83
2017-11-03T02:44:32.293Z,99870.51
2017-11-03T02:46:58.725Z,99870.11
2017-11-03T02:49:25.011Z,99872.09
2017-11-03T02:51:51.267Z,99880.08
2017-11-03T02:54:17.533Z,99874.46
2017-11-03T02:56:43.832Z,99883.44
2017-11-03T02:59:10.085Z,99884.61
2017-11-03T03:01:36.345Z,99880.33
2017-11-03T03:04:13.307Z,99885.03
2017-11-03T03:06:41.030Z,99889.47
2017-11-03T03:09:07.281Z,99880.63
2017-11-03T03:11:33.535Z,99885.15
2017-11-03T03:14:00.514Z,99888.20
2017-11-03T03:16:26.747Z,99889.44
2017-11-03T03:18:52.973Z,99894.94
2017-11-03T03:21:19.229Z,99891.00
2017-11-03T03:23:45.536Z,99887.03
2017-11-03T03:26:11.774Z,99890.42
2017-11-03T03:28:38.020Z,99885.77
2017-11-03T03:31:04.313Z,99895.88
2017-11-03T03:33:31.307Z,99893.45
2017-11-03T03:35:57.566Z,99889.53
2017-11-03T03:38:23.961Z,99892.63
2017-11-03T03:40:50.217Z,99902.53
2017-11-03T03:43:16.488Z,99899.08
2017-11-03T03:45:42.773Z,99900.44
2017-11-03T03:48:09.873Z,99899.88
2017-11-03T03:50:36.108Z,99899.55
2017-11-03T03:53:02.465Z,99904.31
2017-11-03T03:55:28.700Z,99905.51
2017-11-03T03:57:54.926Z,99909.28
2017-11-03T04:00:21.207Z,99905.83
2017-11-03T04:02:48.187Z,99907.36
2017-11-03T04:05:14.463Z,99910.72
2017-11-03T04:07:40.715Z,99910.34
2017-11-03T04:10:07.794Z,99914.12
2017-11-03T04:12:34.058Z,99911.84
2017-11-03T04:15:00.299Z,99919.54
2017-11-03T04:17:28.049Z,99926.72
2017-11-03T04:19:54.303Z,99921.99
2017-11-03T04:22:21.328Z,99920.68
2017-11-03T04:24:47.743Z,99923.77
2017-11-03T04:27:13.959Z,99924.37
2017-11-03T04:29:40.229Z,99921.55
2017-11-03T04:32:06.618Z,99925.91
2017-11-03T04:34:32.850Z,99926.33
2017-11-03T04:36:59.092Z,99926.80
2017-11-03T04:39:25.384Z,99926.52
2017-11-03T04:41:51.750Z,99933.43
2017-11-03T04:44:17.992Z,99930.12
2017-11-03T04:46:44.231Z,99933.05
2017-11-03T04:49:10.462Z,99937.20
2017-11-03T04:51:36.754Z,99933.31
2017-11-03T04:54:03.044Z,99932.32
2017-11-03T04:56:30.108Z,99932.84
2017-11-03T04:58:58.017Z,99924.77
2017-11-03T05:01:24.306Z,99927.59
2017-11-03T05:03:50.641Z,99919.45
2017-11-03T05:06:17.069Z,99921.36
2017-11-03T05:08:44.877Z,99921.71
2017-11-03T05:11:11.121Z,99922.39
2017-11-03T05:13:38.438Z,99930.91
2017-11-03T05:16:04.713Z,99929.00
2017-11-03T05:18:31.736Z,99940.50
2017-11-03T05:20:58.004Z,99943.98
2017-11-03T05:23:25.036Z,99944.16
2017-11-03T05:25:51.314Z,99945.52
2017-11-03T05:28:17.576Z,99942.70
2017-11-03T05:30:43.860Z,99942.44
2017-11-03T05:33:11.130Z,99941.17
2017-11-03T05:35:38.252Z,99946.05
2017-11-03T05:38:05.349Z,99939.81
2017-11-03T05:40:31.669Z,99944.73
2017-11-03T05:42:57.975Z,99944.91
2017-11-03T05:45:24.304Z,99946.26
2017-11-03T05:47:51.316Z,99943.86
2017-11-03T05:50:17.649Z,99949.53
2017-11-03T05:52:43.936Z,99949.83
2017-11-03T05:55:10.319Z,99958.14
2017-11-03T05:57:37.523Z,99955.16
2017-11-03T06:00:03.781Z,99955.09
2017-11-03T06:02:30.055Z,99956.88
2017-11-03T06:04:57.063Z,99960.55
2017-11-03T06:07:23.324Z,99961.76
2017-11-03T06:09:50.390Z,99961.41
2017-11-03T06:12:16.846Z,99966.83
2017-11-03T06:14:43.126Z,99977.92
2017-11-03T06:17:10.183Z,99976.85
2017-11-03T06:19:37.475Z,99987.36
2017-11-03T06:22:04.547Z,99983.59
2017-11-03T06:24:31.733Z,99984.78
2017-11-03T06:26:58.724Z,99983.58
2017-11-03T06:29:25.044Z,99992.08
2017-11-03T06:31:52.341Z,99997.16
2017-11-03T06:34:18.612Z,99999.31
2017-11-03T06:36:45.637Z,100003.16
2017-11-03T06:39:11.896Z,100002.95
2017-11-03T06:41:38.269Z,100007.30
2017-11-03T06:44:04.496Z,100011.39
2017-11-03T06:46:30.765Z,100008.34
2017-11-03T06:48:57.812Z,100009.52
2017-11-03T06:51:24.880Z,100021.06
2017-11-03T06:53:51.204Z,100025.15
2017-11-03T06:56:18.200Z,100026.57
2017-11-03T06:58:44.446Z,100037.77
2017-11-03T07:01:10.746Z,100042.17
2017-11-03T07:03:37.042Z,100049.25
2017-11-03T07:06:04.065Z,100045.06
2017-11-03T07:08:30.320Z,100047.05
2017-11-03T07:10:57.345Z,100049.20
2017-11-03T07:13:24.328Z,100046.99
2017-11-03T07:15:50.613Z,100050.56
2017-11-03T07:18:16.884Z,100052.13
2017-11-03T07:20:43.174Z,100056.70
2017-11-03T07:23:09.449Z,100064.00
2017-11-03T07:25:35.842Z,100068.81
2017-11-03T07:28:02.091Z,100065.52
2017-11-03T07:30:30.073Z,100068.98
2017-11-03T07:32:56.466Z,100078.20
2017-11-03T07:35:22.722Z,100081.55
2017-11-03T07:37:49.718Z,100080.02
2017-11-03T07:40:16.015Z,100074.91
2017-11-03T07:42:42.330Z,100076.50
2017-11-03T07:45:09.606Z,100077.89
2017-11-03T07:47:36.050Z,100075.17
2017-11-03T07:50:02.347Z,100071.94
2017-11-03T07:52:29.338Z,100073.54
2017-11-03T07:54:55.624Z,100077.95
2017-11-03T07:57:22.636Z,100078.75
2017-11-03T07:59:48.903Z,100080.28
2017-11-03T08:02:15.925Z,100071.80
2017-11-03T08:04:43.089Z,100076.16
2017-11-03T08:07:10.096Z,100080.03
2017-11-03T08:09:36.404Z,100081.19
2017-11-03T08:12:02.839Z,100078.44
2017-11-03T08:14:29.151Z,100084.05
2017-11-03T08:16:55.447Z,100083.48
2017-11-03T08:19:21.773Z,100082.52
2017-11-03T08:21:48.796Z,100090.02
2017-11-03T08:24:15.068Z,100081.19
2017-11-03T08:26:42.079Z,100087.28
2017-11-03T08:29:08.561Z,100085.59
2017-11-03T08:31:35.582Z,100086.80
2017-11-03T08:34:02.695Z,100087.55
2017-11-03T08:36:29.030Z,100091.40
2017-11-03T08:38:55.292Z,100093.33
2017-11-03T08:41:21.605Z,100090.34
2017-11-03T08:43:48.020Z,100087.55
2017-11-03T08:46:14.337Z,100081.80
2017-11-03T08:48:40.778Z,100077.46
2017-11-03T08:51:07.202Z,100079.92
2017-11-03T08:53:33.552Z,100088.92
2017-11-03T08:56:00.003Z,100083.39
2017-11-03T08:58:26.326Z,100089.57
2017-11-03T09:00:52.671Z,100083.72
2017-11-03T09:03:19.062Z,100090.48
2017-11-03T09:05:45.426Z,100090.64
2017-11-03T09:08:11.744Z,100082.97
2017-11-03T09:10:38.049Z,100081.66
2017-11-03T09:13:04.784Z,100088.97
2017-11-03T09:15:31.845Z,100085.75
2017-11-03T09:17:58.277Z,100097.08
2017-11-03T09:20:24.768Z,100097.08
2017-11-03T09:22:51.196Z,100095.92
2017-11-03T09:25:17.567Z,100095.59
2017-11-03T09:27:44.658Z,100093.95
2017-11-03T09:30:11.043Z,100099.05
2017-11-03T09:32:38.113Z,100101.05
2017-11-03T09:35:04.441Z,100106.66
2017-11-03T09:37:30.797Z,100103.19
2017-11-03T09:39:57.165Z,100108.22
2017-11-03T09:42:23.456Z,100098.09
2017-11-03T09:44:49.852Z,100106.70
2017-11-03T09:47:17.206Z,100107.21
2017-11-03T09:49:44.337Z,100102.99
2017-11-03T09:52:10.657Z,100102.81
2017-11-03T09:54:36.960Z,100100.98
2017-11-03T09:57:03.477Z,100110.59
2017-11-03T09:59:29.802Z,100105.33
2017-11-03T10:01:56.153Z,100110.61
2017-11-03T10:04:22.500Z,100112.77
2017-11-03T10:06:48.976Z,100106.16
2017-11-03T10:11:50.389Z,100106.53
2017-11-03T10:14:16.726Z,100089.62
2017-11-03T10:16:43.026Z,100104.31
2017-11-03T10:19:09.356Z,100097.66
2017-11-03T10:21:36.266Z,100083.52
2017-11-03T10:24:02.643Z,100091.44
2017-11-03T10:26:28.964Z,100094.26
2017-11-03T10:28:55.288Z,100084.23
2017-11-03T10:31:21.661Z,100089.93
2017-11-03T10:33:48.001Z,100088.61
2017-11-03T10:36:14.283Z,100088.39
2017-11-03T10:38:40.630Z,100092.53
2017-11-03T10:41:06.924Z,100095.98
2017-11-03T10:43:33.239Z,100091.39
2017-11-03T10:46:01.089Z,100093.59
2017-11-03T10:48:27.475Z,100092.75
2017-11-03T10:50:53.936Z,100083.95
2017-11-03T10:53:20.202Z,100091.25
2017-11-03T10:55:46.556Z,100087.91
2017-11-03T10:58:13.613Z,100093.05
2017-11-03T11:00:41.297Z,100091.31
2017-11-03T11:03:07.668Z,100082.06
2017-11-03T11:05:33.973Z,100081.69
2017-11-03T11:08:01.139Z,100080.86
2017-11-03T11:10:27.482Z,100084.97
2017-11-03T11:12:54.588Z,100078.47
2017-11-03T11:15:20.896Z,100072.52
2017-11-03T11:17:47.928Z,100071.38
2017-11-03T11:20:14.241Z,100076.23
2017-11-03T11:22:40.508Z,100074.02
2017-11-03T11:25:07.548Z,100068.36
2017-11-03T11:27:34.577Z,100073.97
2017-11-03T11:30:00.859Z,100068.88
2017-11-03T11:32:27.157Z,100071.53
2017-11-03T11:34:54.163Z,100065.84
2017-11-03T11:37:20.462Z,100063.28
2017-11-03T11:39:46.731Z,100070.19
2017-11-03T11:42:13.073Z,100072.89
2017-11-03T11:44:39.383Z,100069.84
2017-11-03T11:47:05.720Z,100067.57
2017-11-03T11:49:32.075Z,100067.55
2017-11-03T11:51:59.088Z,100065.78
2017-11-03T11:54:25.428Z,100066.02
2017-11-03T11:56:51.859Z,100064.55
2017-11-03T11:59:18.362Z,100055.97
2017-11-03T12:01:44.694Z,100059.57
2017-11-03T12:04:11.020Z,100050.10
2017-11-03T12:06:37.310Z,100052.70
2017-11-03T12:09:03.586Z,100046.80
2017-11-03T12:11:29.928Z,100053.53
2017-11-03T12:13:56.206Z,100060.32
2017-11-03T12:16:23.981Z,100059.67
2017-11-03T12:18:51.100Z,100063.50
2017-11-03T12:21:17.399Z,100069.89
2017-11-03T12:23:43.688Z,100065.34
2017-11-03T12:26:10.878Z,100071.97
2017-11-03T12:28:37.203Z,100062.59
2017-11-03T12:31:03.573Z,100067.20
2017-11-03T12:33:30.772Z,100070.30
2017-11-03T12:35:57.854Z,100067.27
2017-11-03T12:38:24.259Z,100070.30
2017-11-03T12:40:53.482Z,100075.08
2017-11-03T12:43:19.785Z,100068.90
2017-11-03T12:45:46.092Z,100055.75
2017-11-03T12:48:13.172Z,100064.14
2017-11-03T12:50:39.513Z,100058.80
2017-11-03T12:53:05.842Z,100055.39
2017-11-03T12:55:32.276Z,100054.81
2017-11-03T12:57:58.601Z,100052.70
2017-11-03T13:00:25.408Z,100052.91
2017-11-03T13:02:52.449Z,100041.56
2017-11-03T13:05:19.505Z,100044.47
2017-11-03T13:07:47.312Z,100049.56
2017-11-03T13:10:13.639Z,100050.30
2017-11-03T13:12:40.009Z,100043.10
2017-11-03T13:15:06.343Z,100044.84
2017-11-03T13:17:32.771Z,100038.95
2017-11-03T13:19:59.129Z,100046.06
2017-11-03T13:22:26.240Z,100044.50
2017-11-03T13:24:52.575Z,100046.00
2017-11-03T13:27:19.142Z,100046.30
2017-11-03T13:29:45.463Z,100043.86
2017-11-03T13:32:11.848Z,100046.77
2017-11-03T13:34:38.268Z,100048.61
2017-11-03T13:37:05.360Z,100047.21
2017-11-03T13:39:31.709Z,100046.92
2017-11-03T13:41:58.120Z,100052.58
2017-11-03T13:44:24.417Z,100051.31
2017-11-03T13:46:50.791Z,100045.77
2017-11-03T13:49:17.125Z,100038.66
2017-11-03T13:51:43.468Z,100038.63
2017-11-03T13:54:10.798Z,100024.44
2017-11-03T13:56:37.129Z,100031.55
2017-11-03T13:59:03.577Z,100022.55
2017-11-03T14:01:30.916Z,100020.78
2017-11-03T14:03:57.249Z,100027.98
2017-11-03T14:06:23.677Z,100023.22
2017-11-03T14:08:50.106Z,100023.17
2017-11-03T14:11:16.665Z,100016.36
2017-11-03T14:13:42.983Z,100023.36
2017-11-03T14:16:11.784Z,100019.98
2017-11-03T14:18:38.096Z,100016.23
2017-11-03T14:21:04.474Z,100018.73
2017-11-03T14:23:31.630Z,100024.95
2017-11-03T14:25:58.295Z,100024.61
2017-11-03T14:28:24.736Z,100022.71
2017-11-03T14:30:51.158Z,100023.72
2017-11-03T14:33:17.507Z,100021.77
2017-11-03T14:35:43.865Z,100018.45
2017-11-03T14:38:10.632Z,100021.31
2017-11-03T14:40:37.742Z,100021.00
2017-11-03T14:43:04.420Z,100017.05
2017-11-03T14:45:31.093Z,100013.70
2017-11-03T14:47:57.458Z,100021.47
2017-11-03T14:50:23.777Z,100012.74
2017-11-03T14:52:50.258Z,100020.19
2017-11-03T14:55:16.713Z,100018.94
2017-11-03T14:57:43.229Z,100015.70
2017-11-03T15:00:09.619Z,100017.46
2017-11-03T15:02:36.017Z,100016.25
2017-11-03T15:05:02.441Z,100009.82
2017-11-03T15:07:29.584Z,100008.29
2017-11-03T15:09:56.825Z,100006.17
2017-11-03T15:12:23.377Z,100003.22
2017-11-03T15:14:49.779Z,99999.76
2017-11-03T15:17:16.294Z,100001.22
2017-11-03T15:19:43.040Z,99994.00
2017-11-03T15:22:09.525Z,99995.50
2017-11-03T15:24:36.716Z,99993.22
2017-11-03T15:27:03.049Z,99988.60
2017-11-03T15:29:29.331Z,99993.89
2017-11-03T15:31:55.654Z,99992.33
2017-11-03T15:34:23.085Z,99986.91
2017-11-03T15:36:50.072Z,99996.34
2017-11-03T15:39:17.413Z,99995.11
2017-11-03T15:41:44.549Z,99996.45
2017-11-03T15:44:10.881Z,99995.77
2017-11-03T15:46:37.216Z,99999.67
2017-11-03T15:49:03.620Z,99993.41
2017-11-03T15:51:31.007Z,99993.92
2017-11-03T15:53:57.407Z,99999.63
2017-11-03T15:56:23.939Z,100000.22
2017-11-03T15:58:50.366Z,100004.36
2017-11-03T16:01:16.805Z,100009.88
2017-11-03T16:03:43.147Z,100004.84
2017-11-03T16:06:09.596Z,100010.45
2017-11-03T16:08:36.002Z,100009.43
2017-11-03T16:11:02.361Z,100019.70
2017-11-03T16:13:28.909Z,100016.59
2017-11-03T16:15:55.304Z,100025.98
2017-11-03T16:18:21.706Z,100024.64
2017-11-03T16:20:48.831Z,100020.48
2017-11-03T16:23:15.316Z,100017.85
2017-11-03T16:25:41.712Z,100020.33
2017-11-03T16:28:08.805Z,100017.00
2017-11-03T16:30:35.181Z,100014.39
2017-11-03T16:33:01.679Z,100015.59
2017-11-03T16:35:28.389Z,100016.53
2017-11-03T16:37:55.649Z,100020.66
2017-11-03T16:40:22.006Z,100019.38
2017-11-03T16:42:48.667Z,100014.53
2017-11-03T16:45:15.834Z,100013.13
2017-11-03T16:47:42.162Z,100012.16
2017-11-03T16:50:08.638Z,100016.55
2017-11-03T16:52:34.962Z,100016.58
2017-11-03T16:55:01.340Z,100007.59
2017-11-03T16:57:27.731Z,100014.14
2017-11-03T16:59:54.307Z,100022.17
2017-11-03T17:02:20.654Z,100013.63
2017-11-03T17:04:46.958Z,100022.12
2017-11-03T17:07:13.302Z,100017.97
2017-11-03T17:09:39.632Z,100016.83
2017-11-03T17:12:06.037Z,100024.34
2017-11-03T17:14:33.366Z,100023.56
2017-11-03T17:17:00.476Z,100022.47
2017-11-03T17:19:26.857Z,100022.20
2017-11-03T17:21:53.343Z,100016.23
2017-11-03T17:24:19.974Z,100024.23
2017-11-03T17:26:46.332Z,100021.52
2017-11-03T17:29:13.657Z,100016.09
2017-11-03T17:31:40.015Z,100010.91
2017-11-03T17:34:07.100Z,100016.06
2017-11-03T17:36:33.463Z,100007.86
2017-11-03T17:38:59.848Z,100013.00
2017-11-03T17:41:27.046Z,100016.33
2017-11-03T17:43:53.722Z,100014.73
2017-11-03T17:46:21.005Z,100017.39
2017-11-03T17:48:47.608Z,100021.79
2017-11-03T17:51:13.886Z,100027.63
2017-11-03T17:53:40.507Z,100024.03
2017-11-03T17:56:07.703Z,100032.29
2017-11-03T17:58:34.493Z,100023.04
2017-11-03T18:01:01.681Z,100023.94
2017-11-03T18:03:28.171Z,100008.95
2017-11-03T18:05:55.387Z,100015.77
2017-11-03T18:08:21.785Z,100008.34
2017-11-03T18:10:48.166Z,100008.84
2017-11-03T18:13:16.094Z,100008.63
2017-11-03T18:15:42.489Z,100012.12
2017-11-03T18:18:09.563Z,100006.93
2017-11-03T18:20:35.956Z,100010.33
2017-11-03T18:23:02.256Z,99998.70
2017-11-03T18:25:28.788Z,99992.34
2017-11-03T18:27:55.244Z,99996.67
2017-11-03T18:30:22.284Z,99990.32
2017-11-03T18:32:49.251Z,99996.33
2017-11-03T18:35:16.563Z,99993.14
2017-11-03T18:37:48.359Z,99989.00
2017-11-03T18:40:14.833Z,99990.70
2017-11-03T18:42:41.262Z,99994.37
2017-11-03T18:45:08.812Z,99987.47
2017-11-03T18:47:35.908Z,99988.85
2017-11-03T18:50:03.010Z,99981.62
2017-11-03T18:52:30.262Z,99981.88
2017-11-03T18:54:57.798Z,99984.56
2017-11-03T18:57:24.349Z,99987.61
2017-11-03T18:59:51.428Z,99986.09
2017-11-03T19:02:19.960Z,99981.47
2017-11-03T19:04:46.363Z,99988.89
2017-11-03T19:07:12.800Z,99985.34
2017-11-03T19:09:39.538Z,99986.63
2017-11-03T19:12:06.062Z,99987.94
2017-11-03T19:14:32.440Z,99991.23
2017-11-03T19:16:58.821Z,99992.38
2017-11-03T19:19:25.285Z,99994.19
2017-11-03T19:21:51.699Z,99990.70
2017-11-03T19:24:18.122Z,99993.02
2017-11-03T19:26:44.511Z,99989.44
2017-11-03T19:29:11.553Z,99987.26
2017-11-03T19:31:38.042Z,99981.97
2017-11-03T19:34:04.380Z,99985.13
2017-11-03T19:36:31.139Z,99977.80
2017-11-03T19:38:57.511Z,99979.57
2017-11-03T19:41:24.632Z,99982.69
2017-11-03T19:43:50.953Z,99984.70
2017-11-03T19:46:17.328Z,99976.41
2017-11-03T19:48:44.496Z,99981.45
2017-11-03T19:51:10.915Z,99985.48
2017-11-03T19:53:38.003Z,99981.95
2017-11-03T19:56:04.406Z,99978.13
2017-11-03T19:58:31.611Z,99974.59
2017-11-03T20:00:58.240Z,99978.20
2017-11-03T20:03:24.927Z,99962.12
2017-11-03T20:05:52.242Z,99976.47
2017-11-03T20:08:18.682Z,99977.77
2017-11-03T20:10:45.642Z,99979.69
2017-11-03T20:13:12.793Z,99985.27
2017-11-03T20:15:39.994Z,99971.23
2017-11-03T20:18:06.658Z,99973.16
2017-11-03T20:20:33.111Z,99971.55
2017-11-03T20:23:00.295Z,99977.40
2017-11-03T20:25:27.460Z,99977.38
2017-11-03T20:27:53.969Z,99975.35
2017-11-03T20:30:21.138Z,99985.48
2017-11-03T20:32:47.562Z,99987.30
2017-11-03T20:35:14.022Z,99986.76
2017-11-03T20:37:40.579Z,99983.55
2017-11-03T20:40:06.947Z,99984.53
2017-11-03T20:42:34.185Z,99985.66
2017-11-03T20:45:00.690Z,99987.77
2017-11-03T20:47:27.034Z,99982.23
2017-11-03T20:49:53.408Z,99987.60
2017-11-03T20:52:19.938Z,99985.47
2017-11-03T20:54:47.148Z,99979.39
2017-11-03T20:57:13.510Z,99978.81
2017-11-03T20:59:40.150Z,99976.36
2017-11-03T21:02:06.522Z,99977.40
2017-11-03T21:04:33.769Z,99979.16
2017-11-03T21:07:00.346Z,99973.61
2017-11-03T21:09:26.768Z,99969.70
2017-11-03T21:11:54.377Z,99975.52
2017-11-03T21:14:21.533Z,99967.29
2017-11-03T21:16:47.997Z,99974.83
2017-11-03T21:19:14.638Z,99964.23
2017-11-03T21:21:41.240Z,99971.37
2017-11-03T21:24:08.588Z,99971.23
2017-11-03T21:26:35.762Z,99969.77
2017-11-03T21:29:02.055Z,99958.50
2017-11-03T21:31:29.406Z,99950.39
2017-11-03T21:33:55.912Z,99948.88
2017-11-03T21:36:22.420Z,99948.42
2017-11-03T21:38:48.837Z,99951.64
2017-11-03T21:41:15.924Z,99948.42
2017-11-03T21:43:42.290Z,99948.37
2017-11-03T21:46:08.852Z,99950.92
2017-11-03T21:48:35.505Z,99942.96
2017-11-03T21:51:02.793Z,99945.95
2017-11-03T21:53:30.315Z,99934.88
2017-11-03T21:55:57.504Z,99934.84
2017-11-03T21:58:24.727Z,99928.67
2017-11-03T22:00:53.279Z,99933.00
2017-11-03T22:03:19.715Z,99936.53
2017-11-03T22:05:46.127Z,99927.55
2017-11-03T22:08:12.482Z,99931.87
2017-11-03T22:10:39.584Z,99937.92
2017-11-03T22:13:05.942Z,99940.83
2017-11-03T22:15:32.399Z,99933.75
2017-11-03T22:17:58.818Z,99938.70
2017-11-03T22:20:25.285Z,99937.90
2017-11-03T22:22:51.576Z,99937.70
2017-11-03T22:25:17.956Z,99935.33
2017-11-03T22:27:44.316Z,99934.36
2017-11-03T22:30:11.010Z,99930.31
2017-11-03T22:32:38.142Z,99928.97
2017-11-03T22:35:05.339Z,99929.47
2017-11-03T22:37:31.887Z,99929.70
2017-11-03T22:39:58.425Z,99934.91
2017-11-03T22:42:24.801Z,99939.55
2017-11-03T22:44:51.105Z,99939.31
2017-11-03T22:47:17.540Z,99935.67
2017-11-03T22:49:43.869Z,99938.16
2017-11-03T22:52:10.232Z,99946.23
2017-11-03T22:54:36.776Z,99935.48
2017-11-03T22:57:03.898Z,99941.27
2017-11-03T22:59:30.210Z,99929.41
2017-11-03T23:01:57.680Z,99932.89
2017-11-03T23:04:24.054Z,99921.25
2017-11-03T23:06:51.109Z,99913.18
2017-11-03T23:09:18.297Z,99916.02
2017-11-03T23:11:44.679Z,99919.22
2017-11-03T23:14:11.751Z,99919.92
2017-11-03T23:16:38.186Z,99917.27
2017-11-03T23:19:04.620Z,99917.46
2017-11-03T23:21:30.984Z,99921.79
2017-11-03T23:23:57.344Z,99922.13
2017-11-03T23:26:23.804Z,99922.59
2017-11-03T23:28:50.181Z,99919.84
2017-11-03T23:31:16.537Z,99920.27
2017-11-03T23:33:43.007Z,99911.66
2017-11-03T23:36:09.329Z,99916.63
2017-11-03T23:38:36.894Z,99918.58
2017-11-03T23:41:03.269Z,99914.52
2017-11-03T23:43:29.701Z,99911.23
2017-11-03T23:45:56.042Z,99915.70
2017-11-03T23:48:22.429Z,99921.25
2017-11-03T23:50:48.728Z,99913.98
2017-11-03T23:53:15.231Z,99909.41
2017-11-03T23:55:41.634Z,99909.23
2017-11-03T23:58:08.020Z,99905.88
